Time;durP1;ratioP1;P1;durP2;ratioP2;P2;SDS_P1;SDS_P2;PMS_P1;PMS_P2;Temp;Humidity;BMP_temperature;BMP_pressure;BME280_temperature;BME280_humidity;BME280_pressure;Samples;Min_cycle;Max_cycle;Signal;HPM_P1;HPM_P2
2021/01/25 00:04:25;;;;;;;15.52;10.05;;;;;;;0.01;100.00;99078.53;10254227;29;20369;-72
2021/01/25 00:09:26;;;;;;;15.35;9.85;;;;;;;0.05;100.00;99087.94;10258524;28;20050;-72
2021/01/25 00:14:27;;;;;;;11.85;8.85;;;;;;;0.05;100.00;99085.34;10260915;29;20050;-72
2021/01/25 00:19:28;;;;;;;13.52;9.25;;;;;;;0.02;100.00;99084.56;10265986;28;20050;-72
2021/01/25 00:24:29;;;;;;;15.65;9.52;;;;;;;-0.04;100.00;99068.31;10262106;28;20042;-72
2021/01/25 00:29:31;;;;;;;15.60;9.80;;;;;;;-0.08;100.00;99082.19;10261290;28;20051;-72
2021/01/25 00:34:33;;;;;;;16.17;9.98;;;;;;;-0.10;100.00;99073.66;10244326;29;20046;-72
2021/01/25 00:39:34;;;;;;;16.42;10.25;;;;;;;-0.10;100.00;99063.31;10260567;28;20059;-72
2021/01/25 00:44:35;;;;;;;14.32;10.10;;;;;;;-0.04;100.00;99065.72;10281972;28;20074;-72
2021/01/25 00:49:36;;;;;;;12.77;8.93;;;;;;;0.01;100.00;99065.59;10270713;28;20054;-72
2021/01/25 00:54:37;;;;;;;15.25;9.32;;;;;;;-0.05;100.00;99058.00;10260386;28;20044;-72
2021/01/25 00:59:41;;;;;;;13.77;8.95;;;;;;;0.06;100.00;99076.69;10260981;29;20043;-72
2021/01/25 01:04:42;;;;;;;14.73;8.70;;;;;;;0.07;100.00;99078.38;10259821;29;20051;-72
2021/01/25 01:09:43;;;;;;;11.88;8.25;;;;;;;0.16;100.00;99096.28;10259607;28;20077;-72
2021/01/25 01:14:44;;;;;;;11.77;8.18;;;;;;;0.08;100.00;99076.66;10260044;29;20054;-72
2021/01/25 01:19:45;;;;;;;11.13;7.70;;;;;;;0.06;100.00;99081.00;10246891;28;20062;-72
2021/01/25 01:24:46;;;;;;;12.30;7.45;;;;;;;0.05;100.00;99081.91;10221690;29;20055;-72
2021/01/25 01:29:47;;;;;;;13.85;8.02;;;;;;;0.17;100.00;99091.94;10258571;28;20043;-72
2021/01/25 01:34:48;;;;;;;11.70;7.95;;;;;;;0.10;100.00;99093.81;10293034;28;20506;-72
2021/01/25 01:39:49;;;;;;;11.02;7.15;;;;;;;0.09;100.00;99105.06;10266951;28;20063;-72
2021/01/25 01:44:51;;;;;;;15.15;8.50;;;;;;;0.04;100.00;99082.78;10258684;28;20400;-72
2021/01/25 01:49:52;;;;;;;12.38;7.68;;;;;;;0.03;100.00;99081.94;10259131;28;20047;-71
2021/01/25 01:54:57;;;;;;;9.57;6.30;;;;;;;0.06;100.00;99089.63;10258013;29;20039;-72
2021/01/25 01:59:59;;;;;;;12.25;6.75;;;;;;;0.12;100.00;99096.38;10245098;29;20054;-72
2021/01/25 02:05:01;;;;;;;11.38;7.78;;;;;;;0.09;100.00;99097.28;10258167;29;20043;-72
2021/01/25 02:10:04;;;;;;;11.43;7.43;;;;;;;0.03;100.00;99099.19;10241823;28;20043;-72
2021/01/25 02:15:07;;;;;;;12.57;7.90;;;;;;;0.07;100.00;99109.44;10246293;28;20064;-72
2021/01/25 02:20:20;;;;;;;9.65;6.90;;;;;;;0.11;100.00;99128.34;10227463;28;20059;-72
2021/01/25 02:25:50;;;;;;;8.50;6.45;;;;;;;0.10;100.00;99122.31;10294370;28;20043;-72
2021/01/25 02:30:52;;;;;;;13.23;7.93;;;;;;;0.11;100.00;99123.16;10263642;28;20049;-72
2021/01/25 02:35:55;;;;;;;12.70;8.82;;;;;;;0.05;100.00;99112.97;10282725;28;20043;-72
2021/01/25 02:40:59;;;;;;;19.08;9.63;;;;;;;0.05;100.00;99107.78;10279144;28;20051;-72
2021/01/25 02:46:01;;;;;;;12.57;8.35;;;;;;;0.02;100.00;99113.88;10291300;28;20043;-72
2021/01/25 02:51:05;;;;;;;12.10;8.88;;;;;;;0.03;100.00;99114.72;10300080;28;20505;-72
2021/01/25 02:56:08;;;;;;;10.70;7.97;;;;;;;0.12;100.00;99135.22;10299315;28;20375;-72
2021/01/25 03:01:09;;;;;;;12.02;9.02;;;;;;;0.08;100.00;99128.44;10307244;28;20050;-72
2021/01/25 03:06:11;;;;;;;12.23;8.90;;;;;;;0.11;100.00;99129.19;10293175;28;20058;-72
2021/01/25 03:11:17;;;;;;;11.93;8.80;;;;;;;0.06;100.00;99125.88;10253753;28;20487;-72
2021/01/25 03:16:19;;;;;;;12.13;8.60;;;;;;;0.10;100.00;99135.25;10261450;28;20067;-72
2021/01/25 03:21:20;;;;;;;16.15;10.13;;;;;;;0.14;100.00;99136.88;10253867;29;20035;-72
2021/01/25 03:26:21;;;;;;;11.75;7.53;;;;;;;0.11;100.00;99143.88;10255184;29;20433;-72
2021/01/25 03:31:22;;;;;;;10.48;8.10;;;;;;;0.13;100.00;99142.09;10254716;28;20380;-71
2021/01/25 03:36:24;;;;;;;13.88;9.60;;;;;;;0.15;100.00;99145.50;10254715;29;20071;-71
2021/01/25 03:41:26;;;;;;;12.60;9.13;;;;;;;0.14;100.00;99148.97;10254302;28;20495;-72
2021/01/25 03:46:27;;;;;;;11.98;9.25;;;;;;;0.07;100.00;99145.69;10272578;28;20534;-72
2021/01/25 03:51:28;;;;;;;12.55;9.45;;;;;;;0.15;100.00;99163.63;10253357;29;20047;-71
2021/01/25 03:56:29;;;;;;;12.50;9.38;;;;;;;0.19;100.00;99170.41;10237004;29;20059;-72
2021/01/25 04:01:31;;;;;;;13.82;9.20;;;;;;;0.16;100.00;99168.78;10236179;29;20066;-72
2021/01/25 04:06:32;;;;;;;12.65;9.25;;;;;;;0.15;100.00;99163.63;10236569;29;20043;-71
2021/01/25 04:11:33;;;;;;;15.48;9.55;;;;;;;0.03;100.00;99159.59;10267949;28;20038;-72
2021/01/25 04:16:35;;;;;;;13.07;9.18;;;;;;;0.11;100.00;99175.78;10293832;28;20053;-72
2021/01/25 04:21:36;;;;;;;14.25;10.43;;;;;;;0.11;100.00;99178.38;10293992;28;20038;-72
2021/01/25 04:26:41;;;;;;;14.93;9.68;;;;;;;0.10;100.00;99181.84;10293665;28;20050;-72
2021/01/25 04:31:42;;;;;;;13.13;9.98;;;;;;;0.11;100.00;99183.56;10237259;29;20411;-72
2021/01/25 04:36:44;;;;;;;17.25;11.15;;;;;;;0.11;100.00;99173.19;10254336;29;20059;-72
2021/01/25 04:41:46;;;;;;;15.40;11.38;;;;;;;0.08;100.00;99181.06;10252790;28;20067;-72
2021/01/25 04:46:47;;;;;;;18.67;12.65;;;;;;;0.06;100.00;99192.34;10291165;28;20043;-71
2021/01/25 04:51:49;;;;;;;21.90;13.07;;;;;;;0.00;100.00;99201.94;10275321;28;20126;-72
2021/01/25 04:56:51;;;;;;;16.75;11.48;;;;;;;-0.05;100.00;99201.19;10298966;28;20047;-72
2021/01/25 05:01:53;;;;;;;21.05;13.38;;;;;;;-0.11;100.00;99205.69;10292365;28;20047;-72
2021/01/25 05:06:54;;;;;;;16.77;11.65;;;;;;;-0.05;100.00;99221.06;10279260;28;20469;-72
2021/01/25 05:12:05;;;;;;;16.23;11.60;;;;;;;-0.08;100.00;99227.16;10276922;28;20039;-72
2021/01/25 05:17:10;;;;;;;18.27;11.55;;;;;;;0.02;100.00;99240.72;10260622;28;20050;-72
2021/01/25 05:22:16;;;;;;;16.45;12.13;;;;;;;0.00;100.00;99239.94;10259625;29;20047;-72
2021/01/25 05:27:24;;;;;;;21.38;13.32;;;;;;;-0.03;100.00;99242.59;10274277;28;20467;-72
2021/01/25 05:32:25;;;;;;;16.88;12.52;;;;;;;-0.01;100.00;99254.63;10261605;28;20039;-72
2021/01/25 05:37:26;;;;;;;15.80;11.98;;;;;;;-0.10;100.00;99260.00;10258923;28;20047;-72
2021/01/25 05:42:34;;;;;;;20.40;13.52;;;;;;;-0.01;100.00;99266.72;10262438;28;20387;-72
2021/01/25 05:47:46;;;;;;;17.17;13.75;;;;;;;-0.09;100.00;99266.88;10257862;29;20055;-72
2021/01/25 05:52:47;;;;;;;19.88;13.00;;;;;;;-0.14;100.00;99265.25;10254046;29;20047;-72
2021/01/25 05:57:48;;;;;;;20.50;13.95;;;;;;;0.00;100.00;99276.19;10253186;28;20051;-72
2021/01/25 06:02:52;;;;;;;21.38;14.00;;;;;;;0.21;100.00;99295.53;10257674;29;20050;-72
2021/01/25 06:08:02;;;;;;;17.20;12.45;;;;;;;0.26;100.00;99304.88;10238693;28;20043;-72
2021/01/25 06:13:08;;;;;;;21.55;15.85;;;;;;;0.27;100.00;99310.91;10272651;28;20046;-72
2021/01/25 06:18:13;;;;;;;18.27;13.10;;;;;;;0.27;100.00;99321.28;10297650;28;20491;-73
2021/01/25 06:23:16;;;;;;;18.95;13.45;;;;;;;0.38;100.00;99322.75;10297038;28;20049;-73
2021/01/25 06:28:17;;;;;;;16.55;13.23;;;;;;;0.45;100.00;99338.13;10257529;28;20086;-73
2021/01/25 06:33:18;;;;;;;22.05;15.32;;;;;;;0.45;100.00;99338.97;10257186;29;20050;-73
2021/01/25 06:38:21;;;;;;;18.33;13.45;;;;;;;0.30;100.00;99326.41;10256277;28;20063;-73
2021/01/25 06:43:22;;;;;;;17.55;13.25;;;;;;;0.49;100.00;99347.53;10266887;28;20047;-73
2021/01/25 06:48:23;;;;;;;15.63;12.55;;;;;;;0.38;100.00;99338.28;10295930;28;20065;-73
2021/01/25 06:53:30;;;;;;;16.27;13.68;;;;;;;0.45;100.00;99351.94;10278560;28;20047;-73
2021/01/25 06:58:32;;;;;;;15.02;11.88;;;;;;;0.56;100.00;99360.31;10211306;29;20047;-73
2021/01/25 07:03:56;;;;;;;19.58;13.25;;;;;;;0.71;100.00;99382.41;10286763;28;20510;-72
2021/01/25 07:09:03;;;;;;;16.83;12.93;;;;;;;0.70;100.00;99389.34;10290282;28;20622;-73
2021/01/25 07:14:05;;;;;;;16.65;12.82;;;;;;;0.72;100.00;99394.50;10236600;28;20491;-73
2021/01/25 07:19:06;;;;;;;16.80;12.57;;;;;;;0.59;100.00;99387.88;10255251;28;20428;-72
2021/01/25 07:24:08;;;;;;;16.38;13.30;;;;;;;0.59;100.00;99396.50;10262598;28;20467;-72
2021/01/25 07:29:12;;;;;;;17.83;15.10;;;;;;;0.74;100.00;99418.63;10276118;28;20047;-72
2021/01/25 07:34:13;;;;;;;17.33;14.60;;;;;;;0.87;100.00;99427.81;10237679;29;20047;-72
2021/01/25 07:39:17;;;;;;;16.05;12.55;;;;;;;0.83;100.00;99428.78;10253453;28;20069;-73
2021/01/25 07:44:18;;;;;;;16.15;11.98;;;;;;;0.85;100.00;99426.13;10266209;28;20047;-72
2021/01/25 07:49:27;;;;;;;17.30;14.43;;;;;;;0.94;100.00;99431.97;10254151;28;20047;-73
2021/01/25 07:54:30;;;;;;;18.70;15.10;;;;;;;0.98;100.00;99446.56;10252230;29;20395;-72
2021/01/25 07:59:33;;;;;;;17.13;14.15;;;;;;;1.02;100.00;99449.91;10254141;29;20051;-72
2021/01/25 08:04:40;;;;;;;17.75;13.57;;;;;;;0.88;100.00;99439.88;10293092;28;20043;-72
2021/01/25 08:09:43;;;;;;;18.05;12.75;;;;;;;0.97;100.00;99449.19;10281990;28;20048;-72
2021/01/25 08:14:54;;;;;;;17.52;12.55;;;;;;;1.04;100.00;99459.38;10236535;29;20051;-73
2021/01/25 08:20:17;;;;;;;17.08;13.27;;;;;;;1.09;100.00;99470.47;10253193;29;20053;-73
2021/01/25 08:25:21;;;;;;;17.77;13.35;;;;;;;1.11;100.00;99475.63;10271383;28;20057;-73
2021/01/25 08:30:23;;;;;;;17.83;14.35;;;;;;;1.04;100.00;99479.25;10268693;28;20050;-72
2021/01/25 08:35:38;;;;;;;19.45;13.55;;;;;;;0.99;100.00;99478.53;10261309;29;20047;-73
2021/01/25 08:40:40;;;;;;;15.98;12.68;;;;;;;1.01;100.00;99487.97;10261132;28;20137;-72
2021/01/25 08:45:41;;;;;;;15.38;12.25;;;;;;;0.96;100.00;99487.22;10290577;28;20380;-72
2021/01/25 08:50:42;;;;;;;17.15;13.50;;;;;;;1.09;100.00;99524.09;10261326;28;20447;-72
2021/01/25 08:55:49;;;;;;;20.73;16.60;;;;;;;1.13;100.00;99531.78;10260636;29;20043;-72
2021/01/25 09:00:50;;;;;;;18.80;12.63;;;;;;;1.34;100.00;99565.91;10270191;28;20043;-72
2021/01/25 09:05:54;;;;;;;15.48;11.93;;;;;;;1.73;100.00;99564.91;10300490;28;20038;-71
2021/01/25 09:10:59;;;;;;;16.02;12.30;;;;;;;1.55;100.00;99552.38;10276442;28;20057;-71
2021/01/25 09:16:00;;;;;;;15.45;12.40;;;;;;;1.39;100.00;99556.25;10257916;28;20050;-71
2021/01/25 09:21:02;;;;;;;21.25;14.25;;;;;;;1.22;100.00;99555.78;10257922;29;20051;-72
2021/01/25 09:26:03;;;;;;;18.40;12.15;;;;;;;1.29;100.00;99575.50;10281891;28;20043;-72
2021/01/25 09:31:04;;;;;;;21.02;15.70;;;;;;;1.34;100.00;99571.91;10263799;28;20054;-72
2021/01/25 09:36:06;;;;;;;22.50;13.52;;;;;;;1.40;100.00;99595.13;10257731;29;20047;-72
2021/01/25 09:41:07;;;;;;;17.15;12.73;;;;;;;1.46;100.00;99591.53;10222943;28;20059;-73
2021/01/25 09:46:08;;;;;;;21.70;12.07;;;;;;;1.62;100.00;99616.25;10241145;28;20043;-73
2021/01/25 09:51:10;;;;;;;18.65;13.77;;;;;;;1.76;100.00;99626.28;10257386;29;20101;-72
2021/01/25 09:56:11;;;;;;;16.83;13.45;;;;;;;1.93;100.00;99652.69;10253521;29;20511;-72
2021/01/25 10:01:12;;;;;;;19.10;13.68;;;;;;;1.87;100.00;99647.66;10214044;29;20511;-72
2021/01/25 10:06:14;;;;;;;17.95;12.95;;;;;;;2.02;100.00;99662.00;10215074;29;20051;-72
2021/01/25 10:11:15;;;;;;;16.17;12.32;;;;;;;2.05;100.00;99672.31;10238546;28;20043;-72
2021/01/25 10:16:16;;;;;;;17.38;12.32;;;;;;;2.28;100.00;99680.41;10257570;29;20047;-72
2021/01/25 10:21:18;;;;;;;15.80;11.73;;;;;;;2.50;100.00;99689.38;10239687;29;20056;-72
2021/01/25 10:26:20;;;;;;;12.60;9.88;;;;;;;2.45;100.00;99693.81;10256573;29;20050;-72
2021/01/25 10:31:21;;;;;;;15.00;10.82;;;;;;;2.62;100.00;99704.63;10256677;28;20042;-72
2021/01/25 10:36:22;;;;;;;15.00;12.30;;;;;;;2.83;100.00;99717.97;10256523;29;20464;-72
2021/01/25 10:41:24;;;;;;;13.57;10.35;;;;;;;2.56;100.00;99710.00;10238457;29;20060;-72
2021/01/25 10:46:25;;;;;;;12.75;10.75;;;;;;;2.83;100.00;99720.56;10289846;28;20047;-72
2021/01/25 10:51:26;;;;;;;13.10;10.57;;;;;;;3.17;100.00;99754.31;10295413;28;20065;-72
2021/01/25 10:56:29;;;;;;;13.73;10.57;;;;;;;3.41;100.00;99757.06;10296067;28;20049;-71
2021/01/25 11:01:30;;;;;;;16.17;11.98;;;;;;;4.10;100.00;99779.28;10295630;28;20054;-72
2021/01/25 11:06:31;;;;;;;16.00;11.32;;;;;;;4.30;100.00;99790.84;10278081;28;20043;-72
2021/01/25 11:11:33;;;;;;;13.80;10.65;;;;;;;3.90;100.00;99780.81;10253933;28;20043;-72
2021/01/25 11:16:34;;;;;;;14.00;10.88;;;;;;;4.36;100.00;99798.47;10255543;28;20055;-72
2021/01/25 11:21:35;;;;;;;14.60;12.00;;;;;;;5.04;100.00;99831.88;10273005;28;20095;-72
2021/01/25 11:26:39;;;;;;;14.35;11.80;;;;;;;5.27;100.00;99809.25;10274160;28;20050;-73
2021/01/25 11:31:40;;;;;;;14.90;13.13;;;;;;;6.35;100.00;99854.94;10255230;28;20048;-72
2021/01/25 11:36:41;;;;;;;16.08;12.85;;;;;;;7.12;90.33;99832.56;10253807;29;20058;-72
2021/01/25 11:41:42;;;;;;;15.20;11.77;;;;;;;6.91;87.31;99809.06;10252803;28;20056;-72
2021/01/25 11:46:44;;;;;;;12.13;10.88;;;;;;;6.66;87.64;99798.75;10291813;28;20049;-72
2021/01/25 11:51:46;;;;;;;12.73;11.43;;;;;;;7.97;83.43;99838.41;10276213;28;20055;-72
2021/01/25 11:56:47;;;;;;;11.60;10.40;;;;;;;7.28;82.29;99784.75;10293406;28;20360;-72
2021/01/25 12:01:48;;;;;;;12.38;10.13;;;;;;;7.51;82.65;99823.91;10286477;28;20042;-73
2021/01/25 12:06:53;;;;;;;10.18;8.60;;;;;;;7.71;79.86;99812.50;10235742;29;20039;-73
2021/01/25 12:11:54;;;;;;;10.55;9.45;;;;;;;7.82;76.55;99771.78;10253585;28;20050;-72
2021/01/25 12:16:55;;;;;;;11.40;10.23;;;;;;;8.21;76.70;99804.94;10253152;29;20521;-73
2021/01/25 12:21:57;;;;;;;13.90;10.98;;;;;;;7.04;79.26;99763.94;10253427;29;20078;-72
2021/01/25 12:26:58;;;;;;;15.32;11.30;;;;;;;6.75;80.46;99754.72;10252953;28;20047;-72
2021/01/25 12:32:00;;;;;;;14.77;11.60;;;;;;;5.82;85.78;99760.22;10253361;29;20468;-73
2021/01/25 12:37:02;;;;;;;12.27;10.70;;;;;;;6.64;85.86;99824.13;10252988;28;20126;-72
2021/01/25 12:42:03;;;;;;;13.93;10.60;;;;;;;9.73;74.48;99903.28;10252698;28;20133;-72
2021/01/25 12:47:04;;;;;;;11.95;10.65;;;;;;;10.19;68.35;99840.34;10292445;28;20051;-72
2021/01/25 12:52:05;;;;;;;12.98;11.27;;;;;;;10.14;67.51;99814.25;10275722;28;20046;-72
2021/01/25 12:57:07;;;;;;;14.60;13.02;;;;;;;10.33;67.29;99810.63;10293023;28;20043;-72
2021/01/25 13:02:08;;;;;;;12.75;11.45;;;;;;;10.08;67.33;99796.16;10252784;28;20102;-73
2021/01/25 13:07:09;;;;;;;13.88;11.75;;;;;;;10.00;66.64;99769.41;10252381;29;20095;-72
2021/01/25 13:12:10;;;;;;;15.98;12.45;;;;;;;9.60;68.99;99823.34;10234582;29;20367;-72
2021/01/25 13:17:11;;;;;;;11.95;10.35;;;;;;;8.26;71.33;99753.09;10252530;28;20051;-72
2021/01/25 13:22:13;;;;;;;12.77;11.00;;;;;;;7.62;73.34;99756.97;10260001;28;20047;-73
2021/01/25 13:27:14;;;;;;;14.60;12.57;;;;;;;9.12;71.62;99861.72;10254977;28;20039;-74
2021/01/25 13:32:15;;;;;;;14.27;11.32;;;;;;;10.61;64.99;99845.88;10237290;29;20258;-73
2021/01/25 13:37:16;;;;;;;12.90;11.00;;;;;;;10.34;63.47;99797.38;10258201;29;20066;-72
2021/01/25 13:42:17;;;;;;;14.07;12.18;;;;;;;10.72;62.86;99832.06;10248134;28;20395;-72
2021/01/25 13:47:18;;;;;;;13.95;10.93;;;;;;;10.47;62.68;99801.00;10280460;28;20046;-72
2021/01/25 13:52:20;;;;;;;15.40;12.15;;;;;;;11.13;60.69;99790.13;10257145;29;20039;-72
2021/01/25 13:57:21;;;;;;;13.30;11.90;;;;;;;9.70;63.44;99800.88;10257770;29;20514;-73
2021/01/25 14:02:23;;;;;;;13.57;10.98;;;;;;;10.09;62.29;99799.66;10258056;29;20079;-73
2021/01/25 14:07:24;;;;;;;15.77;12.45;;;;;;;7.03;69.14;99725.56;10257688;29;20050;-72
2021/01/25 14:12:25;;;;;;;11.13;10.02;;;;;;;5.85;74.54;99754.03;10257362;29;20102;-72
2021/01/25 14:17:27;;;;;;;13.40;11.32;;;;;;;5.98;77.39;99792.75;10257461;29;20058;-72
2021/01/25 14:22:28;;;;;;;13.23;11.10;;;;;;;4.62;80.19;99742.84;10257444;29;20051;-72
2021/01/25 14:27:29;;;;;;;12.98;11.25;;;;;;;3.71;86.30;99731.00;10238009;28;20050;-73
2021/01/25 14:32:30;;;;;;;15.98;11.35;;;;;;;3.74;89.62;99794.28;10215457;29;20055;-72
2021/01/25 14:37:32;;;;;;;13.40;10.65;;;;;;;3.50;89.00;99810.63;10198907;29;20075;-73
2021/01/25 14:42:33;;;;;;;12.18;10.38;;;;;;;3.39;90.22;99823.09;10254635;28;20412;-72
2021/01/25 14:47:37;;;;;;;17.48;12.90;;;;;;;3.29;91.76;99845.91;10290598;28;20070;-72
2021/01/25 14:52:38;;;;;;;17.98;15.05;;;;;;;3.33;93.87;99873.59;10262989;28;20050;-72
2021/01/25 14:57:40;;;;;;;16.63;12.77;;;;;;;3.23;94.22;99879.91;10254952;29;20051;-72
2021/01/25 15:02:41;;;;;;;16.38;14.65;;;;;;;2.86;96.24;99892.13;10255102;29;20050;-72
2021/01/25 15:07:42;;;;;;;18.60;15.57;;;;;;;2.80;98.50;99918.28;10255391;29;20506;-73
2021/01/25 15:12:44;;;;;;;18.77;14.48;;;;;;;2.78;100.00;99928.72;10237807;29;20050;-73
2021/01/25 15:17:46;;;;;;;16.17;13.55;;;;;;;2.78;100.00;99948.69;10238026;29;20059;-73
2021/01/25 15:22:49;;;;;;;15.35;13.43;;;;;;;2.71;100.00;99954.91;10253407;29;20106;-72
2021/01/25 15:27:51;;;;;;;22.33;15.43;;;;;;;2.68;100.00;99977.50;10253604;28;20054;-72
2021/01/25 15:32:52;;;;;;;16.73;12.10;;;;;;;2.52;100.00;99985.66;10253526;29;20039;-72
2021/01/25 15:37:53;;;;;;;17.92;13.23;;;;;;;2.54;100.00;100008.16;10236298;28;20452;-72
2021/01/25 15:42:55;;;;;;;15.57;12.02;;;;;;;2.34;100.00;99999.06;10261028;28;20488;-72
2021/01/25 15:47:56;;;;;;;15.77;12.82;;;;;;;2.19;100.00;100018.41;10277834;28;20051;-72
2021/01/25 15:52:58;;;;;;;17.25;14.20;;;;;;;2.13;100.00;100039.31;10253941;28;20067;-72
2021/01/25 15:57:59;;;;;;;20.02;17.70;;;;;;;1.89;100.00;100031.09;10237285;29;20043;-72
2021/01/25 16:03:00;;;;;;;21.52;16.50;;;;;;;1.86;100.00;100049.31;10254170;29;20066;-72
2021/01/25 16:08:02;;;;;;;24.42;18.50;;;;;;;1.65;100.00;100048.84;10236277;29;20051;-72
2021/01/25 16:13:03;;;;;;;26.10;20.92;;;;;;;1.59;100.00;100070.56;10246527;28;20040;-73
2021/01/25 16:18:04;;;;;;;26.35;19.00;;;;;;;1.39;100.00;100055.34;10253629;28;20039;-72
2021/01/25 16:23:06;;;;;;;26.02;20.60;;;;;;;0.92;100.00;100040.47;10267869;28;20058;-74
2021/01/25 16:28:13;;;;;;;29.55;23.70;;;;;;;0.65;100.00;100056.41;10272187;28;20047;-73
2021/01/25 16:33:15;;;;;;;31.75;24.17;;;;;;;0.72;100.00;100077.06;10236736;28;20047;-74
2021/01/25 16:38:17;;;;;;;30.50;23.65;;;;;;;0.65;100.00;100080.59;10253419;28;20055;-73
2021/01/25 16:43:22;;;;;;;28.83;22.35;;;;;;;0.70;100.00;100083.97;10253835;28;20518;-73
2021/01/25 16:48:23;;;;;;;;;;;;;;;0.86;100.00;100112.31;10251990;29;20035;-73
2021/01/25 16:53:26;;;;;;;28.63;23.23;;;;;;;0.94;100.00;100131.22;10259021;28;20290;-73
2021/01/25 16:58:27;;;;;;;29.40;22.90;;;;;;;0.83;100.00;100131.38;10259829;29;20150;-73
2021/01/25 17:03:28;;;;;;;32.22;23.60;;;;;;;0.73;100.00;100132.34;10259666;29;20042;-73
2021/01/25 17:08:30;;;;;;;31.80;23.65;;;;;;;0.65;100.00;100139.38;10259272;28;20035;-73
2021/01/25 17:13:31;;;;;;;32.40;23.65;;;;;;;0.56;100.00;100145.50;10260187;28;20449;-73
2021/01/25 17:18:32;;;;;;;33.28;26.52;;;;;;;0.43;100.00;100143.03;10257212;28;20155;-73
2021/01/25 17:23:33;;;;;;;33.42;24.85;;;;;;;0.23;100.00;100143.28;10266923;28;20050;-73
2021/01/25 17:28:34;;;;;;;33.63;24.58;;;;;;;0.34;100.00;100172.50;10258568;28;20039;-73
2021/01/25 17:33:36;;;;;;;27.60;21.00;;;;;;;0.24;100.00;100171.75;10268628;28;20047;-74
2021/01/25 17:38:37;;;;;;;34.33;23.50;;;;;;;0.24;100.00;100170.91;10249337;28;20051;-73
2021/01/25 17:43:39;;;;;;;34.28;24.13;;;;;;;0.23;100.00;100169.16;10297111;28;20047;-73
2021/01/25 17:48:41;;;;;;;35.33;25.67;;;;;;;0.28;100.00;100193.28;10297435;28;20047;-73
2021/01/25 17:53:43;;;;;;;38.80;27.08;;;;;;;0.16;100.00;100180.47;10297763;28;20046;-74
2021/01/25 17:58:44;;;;;;;37.75;26.88;;;;;;;0.19;100.00;100201.13;10262183;28;20051;-73
2021/01/25 18:03:46;;;;;;;41.33;27.77;;;;;;;0.17;100.00;100202.91;10253944;28;20113;-73
2021/01/25 18:08:47;;;;;;;42.92;28.00;;;;;;;0.18;100.00;100202.88;10256933;29;20420;-74
2021/01/25 18:13:49;;;;;;;38.58;27.33;;;;;;;0.31;100.00;100221.78;10256734;29;20043;-74
2021/01/25 18:18:50;;;;;;;49.30;33.90;;;;;;;0.26;100.00;100218.34;10256804;29;20047;-74
2021/01/25 18:23:52;;;;;;;54.28;37.08;;;;;;;0.41;100.00;100230.31;10256791;29;20071;-73
2021/01/25 18:28:53;;;;;;;45.67;28.98;;;;;;;0.39;100.00;100238.09;10256564;28;20447;-73
2021/01/25 18:33:55;;;;;;;47.05;29.77;;;;;;;0.37;100.00;100240.69;10255892;28;20043;-73
2021/01/25 18:38:56;;;;;;;51.08;35.92;;;;;;;0.48;100.00;100239.75;10257429;28;20047;-73
2021/01/25 18:43:57;;;;;;;45.17;30.15;;;;;;;0.54;100.00;100257.81;10256617;29;20071;-73
2021/01/25 18:48:58;;;;;;;48.85;34.70;;;;;;;0.59;100.00;100267.25;10259628;29;20055;-73
2021/01/25 18:53:59;;;;;;;45.30;28.63;;;;;;;0.59;100.00;100281.97;10260800;29;20054;-73
2021/01/25 18:59:00;;;;;;;87.97;54.92;;;;;;;0.65;100.00;100293.16;10246840;29;20054;-74
2021/01/25 19:04:02;;;;;;;43.92;29.42;;;;;;;0.51;100.00;100281.16;10266568;28;20503;-74
2021/01/25 19:09:05;;;;;;;51.00;32.80;;;;;;;0.67;100.00;100295.75;10258605;28;20046;-74
2021/01/25 19:14:06;;;;;;;41.85;27.13;;;;;;;0.68;100.00;100298.28;10277265;28;20724;-73
2021/01/25 19:19:07;;;;;;;39.38;25.40;;;;;;;0.82;100.00;100315.47;10272753;28;20104;-73
2021/01/25 19:24:09;;;;;;;42.55;26.17;;;;;;;0.80;100.00;100304.25;10272089;28;20046;-74
2021/01/25 19:29:10;;;;;;;39.35;24.65;;;;;;;0.84;100.00;100316.31;10268398;28;20042;-73
2021/01/25 19:34:12;;;;;;;41.25;24.23;;;;;;;0.94;100.00;100330.91;10270091;28;20074;-73
2021/01/25 19:39:13;;;;;;;38.70;24.75;;;;;;;0.93;100.00;100332.63;10274914;28;20050;-73
2021/01/25 19:44:14;;;;;;;36.58;24.02;;;;;;;0.95;100.00;100330.03;10272881;28;20047;-73
2021/01/25 19:49:16;;;;;;;33.88;21.10;;;;;;;1.00;100.00;100344.69;10273279;28;20409;-73
2021/01/25 19:54:17;;;;;;;37.38;22.13;;;;;;;1.09;100.00;100344.56;10271540;28;20495;-74
2021/01/25 19:59:18;;;;;;;37.88;22.30;;;;;;;1.08;100.00;100344.59;10273244;28;20042;-73
2021/01/25 20:04:19;;;;;;;35.75;21.45;;;;;;;1.08;100.00;100339.41;10269816;28;20051;-73
2021/01/25 20:09:20;;;;;;;31.33;21.25;;;;;;;1.15;100.00;100361.81;10267582;28;20043;-73
2021/01/25 20:14:21;;;;;;;32.28;19.83;;;;;;;1.14;100.00;100360.97;10268710;28;20407;-73
2021/01/25 20:19:23;;;;;;;36.15;20.42;;;;;;;1.26;100.00;100364.28;10270261;28;20050;-73
2021/01/25 20:24:24;;;;;;;34.50;19.90;;;;;;;1.31;100.00;100365.97;10270639;28;20050;-73
2021/01/25 20:29:25;;;;;;;33.63;21.35;;;;;;;1.34;100.00;100365.09;10263095;28;20054;-73
2021/01/25 20:34:26;;;;;;;32.38;19.98;;;;;;;1.37;100.00;100376.28;10262358;28;20495;-73
2021/01/25 20:39:29;;;;;;;30.40;19.90;;;;;;;1.45;100.00;100381.38;10279180;28;20059;-74
2021/01/25 20:44:30;;;;;;;30.17;19.63;;;;;;;1.29;100.00;100356.47;10290638;28;20126;-73
2021/01/25 20:49:31;;;;;;;28.70;18.75;;;;;;;1.37;100.00;100370.25;10300666;28;20058;-73
2021/01/25 20:54:33;;;;;;;28.42;18.02;;;;;;;1.47;100.00;100367.53;10288937;28;20043;-73
2021/01/25 20:59:34;;;;;;;26.02;16.55;;;;;;;1.54;100.00;100368.31;10276631;28;20043;-73
2021/01/25 21:04:35;;;;;;;26.20;15.88;;;;;;;1.61;100.00;100359.56;10275703;28;21222;-73
2021/01/25 21:09:36;;;;;;;24.88;16.15;;;;;;;1.63;100.00;100356.97;10272384;28;20494;-73
2021/01/25 21:14:37;;;;;;;24.75;15.82;;;;;;;1.66;100.00;100359.53;10263714;28;20054;-73
2021/01/25 21:19:39;;;;;;;22.00;14.35;;;;;;;1.58;100.00;100351.84;10241081;29;20054;-73
2021/01/25 21:24:40;;;;;;;28.25;17.23;;;;;;;1.69;100.00;100375.91;10242125;29;20055;-73
2021/01/25 21:29:41;;;;;;;25.95;16.63;;;;;;;1.68;100.00;100362.94;10245083;28;20047;-73
2021/01/25 21:34:43;;;;;;;23.65;16.55;;;;;;;1.67;100.00;100346.53;10236298;28;20101;-73
2021/01/25 21:39:44;;;;;;;25.05;15.95;;;;;;;1.67;100.00;100346.53;10258938;28;20054;-73
2021/01/25 21:44:46;;;;;;;25.83;16.00;;;;;;;1.59;100.00;100337.97;10258904;29;20476;-73
2021/01/25 21:49:47;;;;;;;23.73;14.63;;;;;;;1.69;100.00;100362.06;10279246;29;20050;-73
2021/01/25 21:54:48;;;;;;;26.38;17.70;;;;;;;1.77;100.00;100381.88;10258172;29;20500;-73
2021/01/25 21:59:49;;;;;;;20.23;13.80;;;;;;;1.60;100.00;100349.19;10258690;28;20059;-73
2021/01/25 22:04:50;;;;;;;24.55;14.95;;;;;;;1.62;100.00;100355.25;10258480;29;20047;-74
2021/01/25 22:09:51;;;;;;;21.17;14.57;;;;;;;1.64;100.00;100351.75;10256652;28;20499;-73
2021/01/25 22:14:52;;;;;;;22.13;14.45;;;;;;;1.78;100.00;100370.63;10257938;29;20484;-73
2021/01/25 22:19:54;;;;;;;19.35;11.95;;;;;;;1.79;100.00;100374.06;10252144;29;20485;-73
2021/01/25 22:24:55;;;;;;;22.02;13.90;;;;;;;1.85;100.00;100376.59;10286277;28;20380;-73
2021/01/25 22:29:56;;;;;;;20.40;13.75;;;;;;;1.99;100.00;100386.81;10294812;28;20054;-73
2021/01/25 22:34:58;;;;;;;17.92;11.98;;;;;;;2.00;100.00;100399.81;10296728;28;20042;-73
2021/01/25 22:39:59;;;;;;;19.35;13.15;;;;;;;1.97;100.00;100396.38;10265367;28;20067;-73
2021/01/25 22:45:02;;;;;;;18.63;12.63;;;;;;;1.87;100.00;100383.50;10256348;29;20075;-73
2021/01/25 22:50:06;;;;;;;20.60;13.95;;;;;;;1.89;100.00;100380.88;10245581;28;20104;-73
2021/01/25 22:55:09;;;;;;;17.85;12.93;;;;;;;1.83;100.00;100378.38;10257049;29;20036;-73